<?xml version="1.0" encoding="UTF-8" standalone="no" ?>
<gpx xmlns="http://www.topografix.com/GPX/1/1" xmlns:xsi="http://www.w3.org/2001/XMLSchema-instance" xsi:schemaLocation="http://www.topografix.com/GPX/1/1 http://www.topografix.com/GPX/1/1/gpx.xsd" version="1.1" creator="VisuGPX - https://www.visugpx.com">
  <metadata>
    <name>Tour de Teuillac 01-19</name>
    <desc><![CDATA[Tour de Teuillac La gaillarde via le centre avec retour la Gaillarde]]></desc>
  </metadata>
  <trk>
    <name><![CDATA[20190113_111838.gpx]]></name>
    <trkseg>
      <trkpt lat="45.08769" lon="-0.53247">
        <ele>20.364452</ele>
        <time>2019-01-13T10:19:59Z</time>
      </trkpt>
      <trkpt lat="45.08781" lon="-0.53248">
        <ele>20.299452</ele>
        <time>2019-01-13T10:20:04Z</time>
      </trkpt>
      <trkpt lat="45.08793" lon="-0.53249">
        <ele>20.258451</ele>
        <time>2019-01-13T10:20:09Z</time>
      </trkpt>
      <trkpt lat="45.08806" lon="-0.53245">
        <ele>20.131453</ele>
        <time>2019-01-13T10:20:14Z</time>
      </trkpt>
      <trkpt lat="45.08817" lon="-0.53241">
        <ele>19.795452</ele>
        <time>2019-01-13T10:20:19Z</time>
      </trkpt>
      <trkpt lat="45.08831" lon="-0.53236">
        <ele>19.204453</ele>
        <time>2019-01-13T10:20:25Z</time>
      </trkpt>
      <trkpt lat="45.08851" lon="-0.53234">
        <ele>19.448452</ele>
        <time>2019-01-13T10:20:34Z</time>
      </trkpt>
      <trkpt lat="45.08863" lon="-0.53235">
        <ele>19.532452</ele>
        <time>2019-01-13T10:20:39Z</time>
      </trkpt>
      <trkpt lat="45.08872" lon="-0.53236">
        <ele>19.097452</ele>
        <time>2019-01-13T10:20:44Z</time>
      </trkpt>
      <trkpt lat="45.08884" lon="-0.5324">
        <ele>18.494452</ele>
        <time>2019-01-13T10:20:49Z</time>
      </trkpt>
      <trkpt lat="45.08894" lon="-0.53247">
        <ele>18.843452</ele>
        <time>2019-01-13T10:20:54Z</time>
      </trkpt>
      <trkpt lat="45.08897" lon="-0.53257">
        <ele>18.673452</ele>
        <time>2019-01-13T10:20:59Z</time>
      </trkpt>
      <trkpt lat="45.08901" lon="-0.53274">
        <ele>17.789452</ele>
        <time>2019-01-13T10:21:04Z</time>
      </trkpt>
      <trkpt lat="45.08905" lon="-0.53294">
        <ele>17.697453</ele>
        <time>2019-01-13T10:21:10Z</time>
      </trkpt>
      <trkpt lat="45.08911" lon="-0.53335">
        <ele>17.584452</ele>
        <time>2019-01-13T10:21:19Z</time>
      </trkpt>
      <trkpt lat="45.08912" lon="-0.53353">
        <ele>16.774452</ele>
        <time>2019-01-13T10:21:24Z</time>
      </trkpt>
      <trkpt lat="45.08914" lon="-0.53369">
        <ele>17.218452</ele>
        <time>2019-01-13T10:21:29Z</time>
      </trkpt>
      <trkpt lat="45.08917" lon="-0.53389">
        <ele>16.796452</ele>
        <time>2019-01-13T10:21:34Z</time>
      </trkpt>
      <trkpt lat="45.08923" lon="-0.53407">
        <ele>16.694452</ele>
        <time>2019-01-13T10:21:39Z</time>
      </trkpt>
      <trkpt lat="45.08933" lon="-0.53424">
        <ele>15.601453</ele>
        <time>2019-01-13T10:21:44Z</time>
      </trkpt>
      <trkpt lat="45.08942" lon="-0.53434">
        <ele>15.601453</ele>
        <time>2019-01-13T10:21:49Z</time>
      </trkpt>
      <trkpt lat="45.08954" lon="-0.53448">
        <ele>15.022452</ele>
        <time>2019-01-13T10:21:54Z</time>
      </trkpt>
      <trkpt lat="45.0896" lon="-0.5346">
        <ele>14.831452</ele>
        <time>2019-01-13T10:21:59Z</time>
      </trkpt>
      <trkpt lat="45.08966" lon="-0.53477">
        <ele>14.841453</ele>
        <time>2019-01-13T10:22:04Z</time>
      </trkpt>
      <trkpt lat="45.0897" lon="-0.53491">
        <ele>14.193453</ele>
        <time>2019-01-13T10:22:09Z</time>
      </trkpt>
      <trkpt lat="45.08972" lon="-0.5351">
        <ele>14.258452</ele>
        <time>2019-01-13T10:22:14Z</time>
      </trkpt>
      <trkpt lat="45.08972" lon="-0.53525">
        <ele>14.179452</ele>
        <time>2019-01-13T10:22:19Z</time>
      </trkpt>
      <trkpt lat="45.08971" lon="-0.53544">
        <ele>14.500452</ele>
        <time>2019-01-13T10:22:24Z</time>
      </trkpt>
      <trkpt lat="45.08971" lon="-0.53565">
        <ele>14.801453</ele>
        <time>2019-01-13T10:22:29Z</time>
      </trkpt>
      <trkpt lat="45.08971" lon="-0.5358">
        <ele>14.672452</ele>
        <time>2019-01-13T10:22:34Z</time>
      </trkpt>
      <trkpt lat="45.08972" lon="-0.53599">
        <ele>14.3624525</ele>
        <time>2019-01-13T10:22:39Z</time>
      </trkpt>
      <trkpt lat="45.08972" lon="-0.53614">
        <ele>14.915452</ele>
        <time>2019-01-13T10:22:44Z</time>
      </trkpt>
      <trkpt lat="45.08973" lon="-0.53637">
        <ele>15.022452</ele>
        <time>2019-01-13T10:22:50Z</time>
      </trkpt>
      <trkpt lat="45.08976" lon="-0.53672">
        <ele>14.715452</ele>
        <time>2019-01-13T10:22:59Z</time>
      </trkpt>
      <trkpt lat="45.08983" lon="-0.53695">
        <ele>14.294453</ele>
        <time>2019-01-13T10:23:04Z</time>
      </trkpt>
      <trkpt lat="45.08995" lon="-0.53706">
        <ele>14.035453</ele>
        <time>2019-01-13T10:23:09Z</time>
      </trkpt>
      <trkpt lat="45.09007" lon="-0.53713">
        <ele>13.626452</ele>
        <time>2019-01-13T10:23:14Z</time>
      </trkpt>
      <trkpt lat="45.0902" lon="-0.53719">
        <ele>12.712452</ele>
        <time>2019-01-13T10:23:19Z</time>
      </trkpt>
      <trkpt lat="45.09032" lon="-0.53723">
        <ele>12.561453</ele>
        <time>2019-01-13T10:23:24Z</time>
      </trkpt>
      <trkpt lat="45.09044" lon="-0.53726">
        <ele>12.854452</ele>
        <time>2019-01-13T10:23:29Z</time>
      </trkpt>
      <trkpt lat="45.09061" lon="-0.53729">
        <ele>12.307452</ele>
        <time>2019-01-13T10:23:35Z</time>
      </trkpt>
      <trkpt lat="45.09082" lon="-0.53735">
        <ele>12.633452</ele>
        <time>2019-01-13T10:23:44Z</time>
      </trkpt>
      <trkpt lat="45.09095" lon="-0.5374">
        <ele>12.639452</ele>
        <time>2019-01-13T10:23:49Z</time>
      </trkpt>
      <trkpt lat="45.09103" lon="-0.53745">
        <ele>13.130452</ele>
        <time>2019-01-13T10:23:54Z</time>
      </trkpt>
      <trkpt lat="45.09108" lon="-0.5376">
        <ele>13.029452</ele>
        <time>2019-01-13T10:23:59Z</time>
      </trkpt>
      <trkpt lat="45.0911" lon="-0.53778">
        <ele>13.202453</ele>
        <time>2019-01-13T10:24:04Z</time>
      </trkpt>
      <trkpt lat="45.09111" lon="-0.53794">
        <ele>13.415452</ele>
        <time>2019-01-13T10:24:09Z</time>
      </trkpt>
      <trkpt lat="45.0911" lon="-0.53815">
        <ele>13.610453</ele>
        <time>2019-01-13T10:24:14Z</time>
      </trkpt>
      <trkpt lat="45.09111" lon="-0.53831">
        <ele>13.996452</ele>
        <time>2019-01-13T10:24:19Z</time>
      </trkpt>
      <trkpt lat="45.09111" lon="-0.53844">
        <ele>13.460452</ele>
        <time>2019-01-13T10:24:24Z</time>
      </trkpt>
      <trkpt lat="45.09111" lon="-0.53867">
        <ele>13.665452</ele>
        <time>2019-01-13T10:24:30Z</time>
      </trkpt>
      <trkpt lat="45.09113" lon="-0.53898">
        <ele>13.966453</ele>
        <time>2019-01-13T10:24:39Z</time>
      </trkpt>
      <trkpt lat="45.09113" lon="-0.53914">
        <ele>14.332453</ele>
        <time>2019-01-13T10:24:44Z</time>
      </trkpt>
      <trkpt lat="45.09114" lon="-0.53932">
        <ele>14.709453</ele>
        <time>2019-01-13T10:24:49Z</time>
      </trkpt>
      <trkpt lat="45.09115" lon="-0.53966">
        <ele>15.463452</ele>
        <time>2019-01-13T10:24:58Z</time>
      </trkpt>
      <trkpt lat="45.09116" lon="-0.53986">
        <ele>15.969453</ele>
        <time>2019-01-13T10:25:04Z</time>
      </trkpt>
      <trkpt lat="45.09116" lon="-0.54002">
        <ele>16.124453</ele>
        <time>2019-01-13T10:25:09Z</time>
      </trkpt>
      <trkpt lat="45.09118" lon="-0.54023">
        <ele>15.766453</ele>
        <time>2019-01-13T10:25:15Z</time>
      </trkpt>
      <trkpt lat="45.09121" lon="-0.54056">
        <ele>16.428452</ele>
        <time>2019-01-13T10:25:24Z</time>
      </trkpt>
      <trkpt lat="45.09123" lon="-0.54074">
        <ele>16.450453</ele>
        <time>2019-01-13T10:25:29Z</time>
      </trkpt>
      <trkpt lat="45.09125" lon="-0.54091">
        <ele>16.735453</ele>
        <time>2019-01-13T10:25:34Z</time>
      </trkpt>
      <trkpt lat="45.09126" lon="-0.54108">
        <ele>17.068453</ele>
        <time>2019-01-13T10:25:39Z</time>
      </trkpt>
      <trkpt lat="45.09127" lon="-0.54124">
        <ele>17.598452</ele>
        <time>2019-01-13T10:25:44Z</time>
      </trkpt>
      <trkpt lat="45.09129" lon="-0.54141">
        <ele>17.222452</ele>
        <time>2019-01-13T10:25:49Z</time>
      </trkpt>
      <trkpt lat="45.0913" lon="-0.54157">
        <ele>17.982452</ele>
        <time>2019-01-13T10:25:54Z</time>
      </trkpt>
      <trkpt lat="45.0913" lon="-0.54177">
        <ele>18.013453</ele>
        <time>2019-01-13T10:26:00Z</time>
      </trkpt>
      <trkpt lat="45.09129" lon="-0.54207">
        <ele>18.747452</ele>
        <time>2019-01-13T10:26:09Z</time>
      </trkpt>
      <trkpt lat="45.09127" lon="-0.54225">
        <ele>18.999453</ele>
        <time>2019-01-13T10:26:14Z</time>
      </trkpt>
      <trkpt lat="45.09125" lon="-0.54244">
        <ele>19.067451</ele>
        <time>2019-01-13T10:26:19Z</time>
      </trkpt>
      <trkpt lat="45.09124" lon="-0.54267">
        <ele>19.254452</ele>
        <time>2019-01-13T10:26:24Z</time>
      </trkpt>
      <trkpt lat="45.09125" lon="-0.54287">
        <ele>19.373453</ele>
        <time>2019-01-13T10:26:29Z</time>
      </trkpt>
      <trkpt lat="45.09128" lon="-0.54306">
        <ele>19.250452</ele>
        <time>2019-01-13T10:26:34Z</time>
      </trkpt>
      <trkpt lat="45.09134" lon="-0.54323">
        <ele>19.434452</ele>
        <time>2019-01-13T10:26:39Z</time>
      </trkpt>
      <trkpt lat="45.09143" lon="-0.54337">
        <ele>19.505453</ele>
        <time>2019-01-13T10:26:44Z</time>
      </trkpt>
      <trkpt lat="45.09154" lon="-0.54349">
        <ele>19.379452</ele>
        <time>2019-01-13T10:26:49Z</time>
      </trkpt>
      <trkpt lat="45.09164" lon="-0.54363">
        <ele>19.393452</ele>
        <time>2019-01-13T10:26:54Z</time>
      </trkpt>
      <trkpt lat="45.09172" lon="-0.54374">
        <ele>18.967453</ele>
        <time>2019-01-13T10:26:59Z</time>
      </trkpt>
      <trkpt lat="45.09182" lon="-0.54387">
        <ele>19.254452</ele>
        <time>2019-01-13T10:27:04Z</time>
      </trkpt>
      <trkpt lat="45.09192" lon="-0.54398">
        <ele>18.965452</ele>
        <time>2019-01-13T10:27:09Z</time>
      </trkpt>
      <trkpt lat="45.09203" lon="-0.54409">
        <ele>19.421452</ele>
        <time>2019-01-13T10:27:14Z</time>
      </trkpt>
      <trkpt lat="45.09213" lon="-0.54419">
        <ele>19.594452</ele>
        <time>2019-01-13T10:27:19Z</time>
      </trkpt>
      <trkpt lat="45.09221" lon="-0.54433">
        <ele>19.204453</ele>
        <time>2019-01-13T10:27:24Z</time>
      </trkpt>
      <trkpt lat="45.09222" lon="-0.54449">
        <ele>18.568453</ele>
        <time>2019-01-13T10:27:29Z</time>
      </trkpt>
      <trkpt lat="45.09219" lon="-0.54466">
        <ele>17.929453</ele>
        <time>2019-01-13T10:27:34Z</time>
      </trkpt>
      <trkpt lat="45.09205" lon="-0.54496">
        <ele>17.482452</ele>
        <time>2019-01-13T10:27:40Z</time>
      </trkpt>
      <trkpt lat="45.09219" lon="-0.54538">
        <ele>16.965452</ele>
        <time>2019-01-13T10:27:49Z</time>
      </trkpt>
      <trkpt lat="45.09226" lon="-0.54553">
        <ele>16.917452</ele>
        <time>2019-01-13T10:27:54Z</time>
      </trkpt>
      <trkpt lat="45.09235" lon="-0.54567">
        <ele>16.345453</ele>
        <time>2019-01-13T10:27:59Z</time>
      </trkpt>
      <trkpt lat="45.09239" lon="-0.54582">
        <ele>16.720453</ele>
        <time>2019-01-13T10:28:04Z</time>
      </trkpt>
      <trkpt lat="45.09243" lon="-0.54597">
        <ele>17.137453</ele>
        <time>2019-01-13T10:28:09Z</time>
      </trkpt>
      <trkpt lat="45.09245" lon="-0.54613">
        <ele>17.728453</ele>
        <time>2019-01-13T10:28:14Z</time>
      </trkpt>
      <trkpt lat="45.09246" lon="-0.54631">
        <ele>18.023453</ele>
        <time>2019-01-13T10:28:19Z</time>
      </trkpt>
      <trkpt lat="45.0925" lon="-0.54654">
        <ele>18.518452</ele>
        <time>2019-01-13T10:28:25Z</time>
      </trkpt>
      <trkpt lat="45.09256" lon="-0.54689">
        <ele>19.572453</ele>
        <time>2019-01-13T10:28:34Z</time>
      </trkpt>
      <trkpt lat="45.09258" lon="-0.54705">
        <ele>20.031452</ele>
        <time>2019-01-13T10:28:39Z</time>
      </trkpt>
      <trkpt lat="45.0926" lon="-0.5472">
        <ele>20.224453</ele>
        <time>2019-01-13T10:28:44Z</time>
      </trkpt>
      <trkpt lat="45.09264" lon="-0.54739">
        <ele>20.105452</ele>
        <time>2019-01-13T10:28:49Z</time>
      </trkpt>
      <trkpt lat="45.09266" lon="-0.54757">
        <ele>20.508451</ele>
        <time>2019-01-13T10:28:54Z</time>
      </trkpt>
      <trkpt lat="45.09264" lon="-0.54768">
        <ele>20.661453</ele>
        <time>2019-01-13T10:28:59Z</time>
      </trkpt>
      <trkpt lat="45.09253" lon="-0.54777">
        <ele>20.988453</ele>
        <time>2019-01-13T10:29:04Z</time>
      </trkpt>
      <trkpt lat="45.09238" lon="-0.54782">
        <ele>21.507452</ele>
        <time>2019-01-13T10:29:10Z</time>
      </trkpt>
      <trkpt lat="45.09216" lon="-0.54788">
        <ele>22.275452</ele>
        <time>2019-01-13T10:29:20Z</time>
      </trkpt>
      <trkpt lat="45.09197" lon="-0.54793">
        <ele>22.971453</ele>
        <time>2019-01-13T10:29:29Z</time>
      </trkpt>
      <trkpt lat="45.09187" lon="-0.54795">
        <ele>23.029453</ele>
        <time>2019-01-13T10:29:34Z</time>
      </trkpt>
      <trkpt lat="45.09177" lon="-0.54798">
        <ele>23.562452</ele>
        <time>2019-01-13T10:29:39Z</time>
      </trkpt>
      <trkpt lat="45.09169" lon="-0.54799">
        <ele>24.005453</ele>
        <time>2019-01-13T10:29:44Z</time>
      </trkpt>
      <trkpt lat="45.09158" lon="-0.54799">
        <ele>23.925453</ele>
        <time>2019-01-13T10:29:49Z</time>
      </trkpt>
      <trkpt lat="45.09146" lon="-0.54801">
        <ele>23.683453</ele>
        <time>2019-01-13T10:29:54Z</time>
      </trkpt>
      <trkpt lat="45.09134" lon="-0.54805">
        <ele>23.223452</ele>
        <time>2019-01-13T10:29:59Z</time>
      </trkpt>
      <trkpt lat="45.09119" lon="-0.54808">
        <ele>22.486452</ele>
        <time>2019-01-13T10:30:05Z</time>
      </trkpt>
      <trkpt lat="45.09092" lon="-0.54811">
        <ele>22.232452</ele>
        <time>2019-01-13T10:30:14Z</time>
      </trkpt>
      <trkpt lat="45.09077" lon="-0.5481">
        <ele>21.889452</ele>
        <time>2019-01-13T10:30:19Z</time>
      </trkpt>
      <trkpt lat="45.09062" lon="-0.54817">
        <ele>21.844452</ele>
        <time>2019-01-13T10:30:24Z</time>
      </trkpt>
      <trkpt lat="45.09047" lon="-0.54817">
        <ele>21.420452</ele>
        <time>2019-01-13T10:30:29Z</time>
      </trkpt>
      <trkpt lat="45.09035" lon="-0.54823">
        <ele>21.856453</ele>
        <time>2019-01-13T10:30:34Z</time>
      </trkpt>
      <trkpt lat="45.09018" lon="-0.54829">
        <ele>21.810452</ele>
        <time>2019-01-13T10:30:38Z</time>
      </trkpt>
      <trkpt lat="45.09007" lon="-0.54834">
        <ele>22.163452</ele>
        <time>2019-01-13T10:30:44Z</time>
      </trkpt>
      <trkpt lat="45.08992" lon="-0.54835">
        <ele>22.695452</ele>
        <time>2019-01-13T10:30:49Z</time>
      </trkpt>
      <trkpt lat="45.08984" lon="-0.5484">
        <ele>23.011452</ele>
        <time>2019-01-13T10:30:54Z</time>
      </trkpt>
      <trkpt lat="45.08971" lon="-0.54838">
        <ele>23.168453</ele>
        <time>2019-01-13T10:30:59Z</time>
      </trkpt>
      <trkpt lat="45.08961" lon="-0.54839">
        <ele>23.903452</ele>
        <time>2019-01-13T10:31:04Z</time>
      </trkpt>
      <trkpt lat="45.08949" lon="-0.54838">
        <ele>24.289452</ele>
        <time>2019-01-13T10:31:09Z</time>
      </trkpt>
      <trkpt lat="45.08937" lon="-0.54835">
        <ele>24.758451</ele>
        <time>2019-01-13T10:31:14Z</time>
      </trkpt>
      <trkpt lat="45.08927" lon="-0.5483">
        <ele>24.971453</ele>
        <time>2019-01-13T10:31:19Z</time>
      </trkpt>
      <trkpt lat="45.08914" lon="-0.54827">
        <ele>24.983452</ele>
        <time>2019-01-13T10:31:24Z</time>
      </trkpt>
      <trkpt lat="45.08904" lon="-0.54821">
        <ele>25.362452</ele>
        <time>2019-01-13T10:31:29Z</time>
      </trkpt>
      <trkpt lat="45.08888" lon="-0.54814">
        <ele>25.658453</ele>
        <time>2019-01-13T10:31:35Z</time>
      </trkpt>
      <trkpt lat="45.08862" lon="-0.54802">
        <ele>26.205452</ele>
        <time>2019-01-13T10:31:45Z</time>
      </trkpt>
      <trkpt lat="45.08843" lon="-0.54794">
        <ele>26.892452</ele>
        <time>2019-01-13T10:31:54Z</time>
      </trkpt>
      <trkpt lat="45.08828" lon="-0.54789">
        <ele>27.138453</ele>
        <time>2019-01-13T10:31:59Z</time>
      </trkpt>
      <trkpt lat="45.08815" lon="-0.54785">
        <ele>27.353453</ele>
        <time>2019-01-13T10:32:04Z</time>
      </trkpt>
      <trkpt lat="45.08802" lon="-0.54782">
        <ele>27.696453</ele>
        <time>2019-01-13T10:32:09Z</time>
      </trkpt>
      <trkpt lat="45.08787" lon="-0.5478">
        <ele>27.968452</ele>
        <time>2019-01-13T10:32:14Z</time>
      </trkpt>
      <trkpt lat="45.08774" lon="-0.5478">
        <ele>28.157452</ele>
        <time>2019-01-13T10:32:19Z</time>
      </trkpt>
      <trkpt lat="45.08762" lon="-0.5478">
        <ele>28.779453</ele>
        <time>2019-01-13T10:32:24Z</time>
      </trkpt>
      <trkpt lat="45.08748" lon="-0.54785">
        <ele>29.109453</ele>
        <time>2019-01-13T10:32:30Z</time>
      </trkpt>
      <trkpt lat="45.08728" lon="-0.54789">
        <ele>28.865452</ele>
        <time>2019-01-13T10:32:39Z</time>
      </trkpt>
      <trkpt lat="45.08715" lon="-0.54793">
        <ele>29.608452</ele>
        <time>2019-01-13T10:32:44Z</time>
      </trkpt>
      <trkpt lat="45.08703" lon="-0.54796">
        <ele>29.920452</ele>
        <time>2019-01-13T10:32:49Z</time>
      </trkpt>
      <trkpt lat="45.08692" lon="-0.54799">
        <ele>30.472452</ele>
        <time>2019-01-13T10:32:54Z</time>
      </trkpt>
      <trkpt lat="45.08678" lon="-0.548">
        <ele>30.658453</ele>
        <time>2019-01-13T10:32:59Z</time>
      </trkpt>
      <trkpt lat="45.08666" lon="-0.54804">
        <ele>30.950453</ele>
        <time>2019-01-13T10:33:04Z</time>
      </trkpt>
      <trkpt lat="45.08653" lon="-0.54805">
        <ele>31.488453</ele>
        <time>2019-01-13T10:33:09Z</time>
      </trkpt>
      <trkpt lat="45.08637" lon="-0.54808">
        <ele>31.812452</ele>
        <time>2019-01-13T10:33:15Z</time>
      </trkpt>
      <trkpt lat="45.08614" lon="-0.54814">
        <ele>32.760452</ele>
        <time>2019-01-13T10:33:24Z</time>
      </trkpt>
      <trkpt lat="45.08602" lon="-0.54818">
        <ele>33.22645</ele>
        <time>2019-01-13T10:33:29Z</time>
      </trkpt>
      <trkpt lat="45.0859" lon="-0.54818">
        <ele>33.93545</ele>
        <time>2019-01-13T10:33:34Z</time>
      </trkpt>
      <trkpt lat="45.08577" lon="-0.54821">
        <ele>34.910454</ele>
        <time>2019-01-13T10:33:39Z</time>
      </trkpt>
      <trkpt lat="45.08565" lon="-0.54826">
        <ele>35.779453</ele>
        <time>2019-01-13T10:33:44Z</time>
      </trkpt>
      <trkpt lat="45.08554" lon="-0.54832">
        <ele>36.67945</ele>
        <time>2019-01-13T10:33:49Z</time>
      </trkpt>
      <trkpt lat="45.08543" lon="-0.5484">
        <ele>36.99045</ele>
        <time>2019-01-13T10:33:54Z</time>
      </trkpt>
      <trkpt lat="45.08535" lon="-0.54856">
        <ele>38.04045</ele>
        <time>2019-01-13T10:34:00Z</time>
      </trkpt>
      <trkpt lat="45.08525" lon="-0.54883">
        <ele>39.52745</ele>
        <time>2019-01-13T10:34:09Z</time>
      </trkpt>
      <trkpt lat="45.08521" lon="-0.54901">
        <ele>40.725452</ele>
        <time>2019-01-13T10:34:14Z</time>
      </trkpt>
      <trkpt lat="45.08518" lon="-0.54917">
        <ele>41.362453</ele>
        <time>2019-01-13T10:34:19Z</time>
      </trkpt>
      <trkpt lat="45.08514" lon="-0.54934">
        <ele>42.198452</ele>
        <time>2019-01-13T10:34:24Z</time>
      </trkpt>
      <trkpt lat="45.08509" lon="-0.54951">
        <ele>43.118454</ele>
        <time>2019-01-13T10:34:29Z</time>
      </trkpt>
      <trkpt lat="45.08499" lon="-0.54965">
        <ele>44.092453</ele>
        <time>2019-01-13T10:34:34Z</time>
      </trkpt>
      <trkpt lat="45.08489" lon="-0.54972">
        <ele>44.717453</ele>
        <time>2019-01-13T10:34:39Z</time>
      </trkpt>
      <trkpt lat="45.08479" lon="-0.54978">
        <ele>45.458454</ele>
        <time>2019-01-13T10:34:44Z</time>
      </trkpt>
      <trkpt lat="45.08469" lon="-0.54984">
        <ele>46.47145</ele>
        <time>2019-01-13T10:34:49Z</time>
      </trkpt>
      <trkpt lat="45.08455" lon="-0.54992">
        <ele>47.168453</ele>
        <time>2019-01-13T10:34:55Z</time>
      </trkpt>
      <trkpt lat="45.08448" lon="-0.55026">
        <ele>47.882454</ele>
        <time>2019-01-13T10:35:04Z</time>
      </trkpt>
      <trkpt lat="45.08449" lon="-0.55043">
        <ele>49.189453</ele>
        <time>2019-01-13T10:35:09Z</time>
      </trkpt>
      <trkpt lat="45.08448" lon="-0.55062">
        <ele>50.126453</ele>
        <time>2019-01-13T10:35:14Z</time>
      </trkpt>
      <trkpt lat="45.08446" lon="-0.55079">
        <ele>51.760452</ele>
        <time>2019-01-13T10:35:19Z</time>
      </trkpt>
      <trkpt lat="45.08447" lon="-0.55097">
        <ele>52.36745</ele>
        <time>2019-01-13T10:35:24Z</time>
      </trkpt>
      <trkpt lat="45.08446" lon="-0.55115">
        <ele>53.328453</ele>
        <time>2019-01-13T10:35:29Z</time>
      </trkpt>
      <trkpt lat="45.08447" lon="-0.55131">
        <ele>54.74145</ele>
        <time>2019-01-13T10:35:34Z</time>
      </trkpt>
      <trkpt lat="45.08447" lon="-0.5515">
        <ele>54.903454</ele>
        <time>2019-01-13T10:35:39Z</time>
      </trkpt>
      <trkpt lat="45.08447" lon="-0.55169">
        <ele>54.830452</ele>
        <time>2019-01-13T10:35:44Z</time>
      </trkpt>
      <trkpt lat="45.08446" lon="-0.5519">
        <ele>55.448452</ele>
        <time>2019-01-13T10:35:49Z</time>
      </trkpt>
      <trkpt lat="45.08443" lon="-0.55208">
        <ele>55.676453</ele>
        <time>2019-01-13T10:35:54Z</time>
      </trkpt>
      <trkpt lat="45.08441" lon="-0.55223">
        <ele>55.743454</ele>
        <time>2019-01-13T10:35:59Z</time>
      </trkpt>
      <trkpt lat="45.08436" lon="-0.5524">
        <ele>55.496452</ele>
        <time>2019-01-13T10:36:04Z</time>
      </trkpt>
      <trkpt lat="45.08433" lon="-0.55255">
        <ele>55.698452</ele>
        <time>2019-01-13T10:36:09Z</time>
      </trkpt>
      <trkpt lat="45.08433" lon="-0.55276">
        <ele>55.933453</ele>
        <time>2019-01-13T10:36:14Z</time>
      </trkpt>
      <trkpt lat="45.08433" lon="-0.55295">
        <ele>56.259453</ele>
        <time>2019-01-13T10:36:19Z</time>
      </trkpt>
      <trkpt lat="45.08433" lon="-0.55317">
        <ele>56.74845</ele>
        <time>2019-01-13T10:36:25Z</time>
      </trkpt>
      <trkpt lat="45.0843" lon="-0.55348">
        <ele>57.431454</ele>
        <time>2019-01-13T10:36:34Z</time>
      </trkpt>
      <trkpt lat="45.08422" lon="-0.55382">
        <ele>58.113453</ele>
        <time>2019-01-13T10:36:44Z</time>
      </trkpt>
      <trkpt lat="45.08415" lon="-0.55396">
        <ele>58.42245</ele>
        <time>2019-01-13T10:36:49Z</time>
      </trkpt>
      <trkpt lat="45.08406" lon="-0.55412">
        <ele>58.612453</ele>
        <time>2019-01-13T10:36:54Z</time>
      </trkpt>
      <trkpt lat="45.08399" lon="-0.55428">
        <ele>59.26245</ele>
        <time>2019-01-13T10:36:59Z</time>
      </trkpt>
      <trkpt lat="45.08394" lon="-0.55444">
        <ele>59.217453</ele>
        <time>2019-01-13T10:37:04Z</time>
      </trkpt>
      <trkpt lat="45.08387" lon="-0.5546">
        <ele>59.90145</ele>
        <time>2019-01-13T10:37:09Z</time>
      </trkpt>
      <trkpt lat="45.08382" lon="-0.55477">
        <ele>59.83845</ele>
        <time>2019-01-13T10:37:14Z</time>
      </trkpt>
      <trkpt lat="45.08377" lon="-0.55493">
        <ele>60.854454</ele>
        <time>2019-01-13T10:37:19Z</time>
      </trkpt>
      <trkpt lat="45.08371" lon="-0.5551">
        <ele>61.28245</ele>
        <time>2019-01-13T10:37:24Z</time>
      </trkpt>
      <trkpt lat="45.08367" lon="-0.55527">
        <ele>61.696453</ele>
        <time>2019-01-13T10:37:29Z</time>
      </trkpt>
      <trkpt lat="45.08363" lon="-0.55545">
        <ele>61.715454</ele>
        <time>2019-01-13T10:37:34Z</time>
      </trkpt>
      <trkpt lat="45.08362" lon="-0.55564">
        <ele>60.955452</ele>
        <time>2019-01-13T10:37:39Z</time>
      </trkpt>
      <trkpt lat="45.08361" lon="-0.55582">
        <ele>59.795452</ele>
        <time>2019-01-13T10:37:44Z</time>
      </trkpt>
      <trkpt lat="45.0836" lon="-0.55602">
        <ele>59.462452</ele>
        <time>2019-01-13T10:37:49Z</time>
      </trkpt>
      <trkpt lat="45.0836" lon="-0.55618">
        <ele>59.24045</ele>
        <time>2019-01-13T10:37:54Z</time>
      </trkpt>
      <trkpt lat="45.08358" lon="-0.55636">
        <ele>58.448452</ele>
        <time>2019-01-13T10:37:59Z</time>
      </trkpt>
      <trkpt lat="45.08355" lon="-0.55661">
        <ele>58.57445</ele>
        <time>2019-01-13T10:38:05Z</time>
      </trkpt>
      <trkpt lat="45.08351" lon="-0.55696">
        <ele>57.315453</ele>
        <time>2019-01-13T10:38:14Z</time>
      </trkpt>
      <trkpt lat="45.0835" lon="-0.55715">
        <ele>57.43545</ele>
        <time>2019-01-13T10:38:19Z</time>
      </trkpt>
      <trkpt lat="45.08349" lon="-0.55734">
        <ele>56.92945</ele>
        <time>2019-01-13T10:38:24Z</time>
      </trkpt>
      <trkpt lat="45.0835" lon="-0.55752">
        <ele>56.649452</ele>
        <time>2019-01-13T10:38:29Z</time>
      </trkpt>
      <trkpt lat="45.08351" lon="-0.5577">
        <ele>56.383453</ele>
        <time>2019-01-13T10:38:34Z</time>
      </trkpt>
      <trkpt lat="45.08355" lon="-0.55789">
        <ele>56.972454</ele>
        <time>2019-01-13T10:38:39Z</time>
      </trkpt>
      <trkpt lat="45.08349" lon="-0.55797">
        <ele>57.340454</ele>
        <time>2019-01-13T10:38:44Z</time>
      </trkpt>
      <trkpt lat="45.08337" lon="-0.55777">
        <ele>57.44345</ele>
        <time>2019-01-13T10:38:50Z</time>
      </trkpt>
      <trkpt lat="45.08323" lon="-0.55752">
        <ele>57.15245</ele>
        <time>2019-01-13T10:38:59Z</time>
      </trkpt>
      <trkpt lat="45.08315" lon="-0.55737">
        <ele>57.437454</ele>
        <time>2019-01-13T10:39:04Z</time>
      </trkpt>
      <trkpt lat="45.08308" lon="-0.55723">
        <ele>57.813454</ele>
        <time>2019-01-13T10:39:09Z</time>
      </trkpt>
      <trkpt lat="45.08299" lon="-0.55705">
        <ele>57.965454</ele>
        <time>2019-01-13T10:39:14Z</time>
      </trkpt>
      <trkpt lat="45.08288" lon="-0.5569">
        <ele>58.222454</ele>
        <time>2019-01-13T10:39:19Z</time>
      </trkpt>
      <trkpt lat="45.08278" lon="-0.55678">
        <ele>58.531452</ele>
        <time>2019-01-13T10:39:24Z</time>
      </trkpt>
      <trkpt lat="45.08269" lon="-0.55667">
        <ele>58.695454</ele>
        <time>2019-01-13T10:39:29Z</time>
      </trkpt>
      <trkpt lat="45.0826" lon="-0.55655">
        <ele>59.264454</ele>
        <time>2019-01-13T10:39:34Z</time>
      </trkpt>
      <trkpt lat="45.0825" lon="-0.55644">
        <ele>59.58145</ele>
        <time>2019-01-13T10:39:39Z</time>
      </trkpt>
      <trkpt lat="45.0824" lon="-0.5563">
        <ele>60.15745</ele>
        <time>2019-01-13T10:39:45Z</time>
      </trkpt>
      <trkpt lat="45.08227" lon="-0.556">
        <ele>58.85945</ele>
        <time>2019-01-13T10:39:54Z</time>
      </trkpt>
      <trkpt lat="45.0822" lon="-0.55583">
        <ele>57.738453</ele>
        <time>2019-01-13T10:39:59Z</time>
      </trkpt>
      <trkpt lat="45.08211" lon="-0.55565">
        <ele>56.522453</ele>
        <time>2019-01-13T10:40:04Z</time>
      </trkpt>
      <trkpt lat="45.08201" lon="-0.55547">
        <ele>55.510452</ele>
        <time>2019-01-13T10:40:09Z</time>
      </trkpt>
      <trkpt lat="45.08194" lon="-0.55532">
        <ele>54.473454</ele>
        <time>2019-01-13T10:40:14Z</time>
      </trkpt>
      <trkpt lat="45.08186" lon="-0.55515">
        <ele>53.600452</ele>
        <time>2019-01-13T10:40:19Z</time>
      </trkpt>
      <trkpt lat="45.0818" lon="-0.55497">
        <ele>52.404453</ele>
        <time>2019-01-13T10:40:24Z</time>
      </trkpt>
      <trkpt lat="45.08172" lon="-0.55473">
        <ele>50.826454</ele>
        <time>2019-01-13T10:40:30Z</time>
      </trkpt>
      <trkpt lat="45.08164" lon="-0.55438">
        <ele>48.536453</ele>
        <time>2019-01-13T10:40:39Z</time>
      </trkpt>
      <trkpt lat="45.08162" lon="-0.55421">
        <ele>47.190453</ele>
        <time>2019-01-13T10:40:44Z</time>
      </trkpt>
      <trkpt lat="45.08159" lon="-0.55399">
        <ele>45.97845</ele>
        <time>2019-01-13T10:40:49Z</time>
      </trkpt>
      <trkpt lat="45.08155" lon="-0.5538">
        <ele>44.691452</ele>
        <time>2019-01-13T10:40:54Z</time>
      </trkpt>
      <trkpt lat="45.08147" lon="-0.55361">
        <ele>43.434452</ele>
        <time>2019-01-13T10:40:59Z</time>
      </trkpt>
      <trkpt lat="45.08143" lon="-0.55342">
        <ele>41.86645</ele>
        <time>2019-01-13T10:41:04Z</time>
      </trkpt>
      <trkpt lat="45.0814" lon="-0.55318">
        <ele>40.350452</ele>
        <time>2019-01-13T10:41:09Z</time>
      </trkpt>
      <trkpt lat="45.08137" lon="-0.55294">
        <ele>38.995453</ele>
        <time>2019-01-13T10:41:15Z</time>
      </trkpt>
      <trkpt lat="45.08136" lon="-0.55276">
        <ele>38.11645</ele>
        <time>2019-01-13T10:41:19Z</time>
      </trkpt>
      <trkpt lat="45.08133" lon="-0.55254">
        <ele>37.488453</ele>
        <time>2019-01-13T10:41:24Z</time>
      </trkpt>
      <trkpt lat="45.0813" lon="-0.55236">
        <ele>36.878452</ele>
        <time>2019-01-13T10:41:29Z</time>
      </trkpt>
      <trkpt lat="45.08127" lon="-0.55217">
        <ele>35.87945</ele>
        <time>2019-01-13T10:41:34Z</time>
      </trkpt>
      <trkpt lat="45.08117" lon="-0.55179">
        <ele>35.11645</ele>
        <time>2019-01-13T10:41:44Z</time>
      </trkpt>
      <trkpt lat="45.08109" lon="-0.55163">
        <ele>34.614452</ele>
        <time>2019-01-13T10:41:49Z</time>
      </trkpt>
      <trkpt lat="45.08102" lon="-0.55148">
        <ele>34.14345</ele>
        <time>2019-01-13T10:41:54Z</time>
      </trkpt>
      <trkpt lat="45.08097" lon="-0.5513">
        <ele>33.36045</ele>
        <time>2019-01-13T10:41:59Z</time>
      </trkpt>
      <trkpt lat="45.08088" lon="-0.55113">
        <ele>32.82545</ele>
        <time>2019-01-13T10:42:04Z</time>
      </trkpt>
      <trkpt lat="45.0808" lon="-0.55098">
        <ele>32.555454</ele>
        <time>2019-01-13T10:42:09Z</time>
      </trkpt>
      <trkpt lat="45.08069" lon="-0.55085">
        <ele>32.04645</ele>
        <time>2019-01-13T10:42:14Z</time>
      </trkpt>
      <trkpt lat="45.08054" lon="-0.55073">
        <ele>31.971453</ele>
        <time>2019-01-13T10:42:19Z</time>
      </trkpt>
      <trkpt lat="45.08046" lon="-0.55057">
        <ele>31.650452</ele>
        <time>2019-01-13T10:42:24Z</time>
      </trkpt>
      <trkpt lat="45.08047" lon="-0.55038">
        <ele>31.200453</ele>
        <time>2019-01-13T10:42:29Z</time>
      </trkpt>
      <trkpt lat="45.08051" lon="-0.5502">
        <ele>30.835453</ele>
        <time>2019-01-13T10:42:34Z</time>
      </trkpt>
      <trkpt lat="45.08052" lon="-0.55007">
        <ele>30.031452</ele>
        <time>2019-01-13T10:42:39Z</time>
      </trkpt>
      <trkpt lat="45.08055" lon="-0.54987">
        <ele>28.831453</ele>
        <time>2019-01-13T10:42:44Z</time>
      </trkpt>
      <trkpt lat="45.08056" lon="-0.54968">
        <ele>28.191452</ele>
        <time>2019-01-13T10:42:49Z</time>
      </trkpt>
      <trkpt lat="45.08059" lon="-0.54946">
        <ele>26.799452</ele>
        <time>2019-01-13T10:42:55Z</time>
      </trkpt>
      <trkpt lat="45.08062" lon="-0.54911">
        <ele>25.179453</ele>
        <time>2019-01-13T10:43:04Z</time>
      </trkpt>
      <trkpt lat="45.08064" lon="-0.54893">
        <ele>24.752453</ele>
        <time>2019-01-13T10:43:09Z</time>
      </trkpt>
      <trkpt lat="45.08065" lon="-0.54875">
        <ele>24.660452</ele>
        <time>2019-01-13T10:43:14Z</time>
      </trkpt>
      <trkpt lat="45.08068" lon="-0.54856">
        <ele>24.951452</ele>
        <time>2019-01-13T10:43:19Z</time>
      </trkpt>
      <trkpt lat="45.0807" lon="-0.54835">
        <ele>25.364452</ele>
        <time>2019-01-13T10:43:24Z</time>
      </trkpt>
      <trkpt lat="45.0807" lon="-0.54815">
        <ele>25.920452</ele>
        <time>2019-01-13T10:43:29Z</time>
      </trkpt>
      <trkpt lat="45.08071" lon="-0.54799">
        <ele>26.560452</ele>
        <time>2019-01-13T10:43:34Z</time>
      </trkpt>
      <trkpt lat="45.08072" lon="-0.54779">
        <ele>27.327452</ele>
        <time>2019-01-13T10:43:40Z</time>
      </trkpt>
      <trkpt lat="45.08074" lon="-0.54749">
        <ele>28.497452</ele>
        <time>2019-01-13T10:43:49Z</time>
      </trkpt>
      <trkpt lat="45.08076" lon="-0.54732">
        <ele>29.025452</ele>
        <time>2019-01-13T10:43:54Z</time>
      </trkpt>
      <trkpt lat="45.08077" lon="-0.54712">
        <ele>29.713453</ele>
        <time>2019-01-13T10:43:59Z</time>
      </trkpt>
      <trkpt lat="45.08078" lon="-0.54696">
        <ele>30.301453</ele>
        <time>2019-01-13T10:44:04Z</time>
      </trkpt>
      <trkpt lat="45.0808" lon="-0.54681">
        <ele>30.782452</ele>
        <time>2019-01-13T10:44:09Z</time>
      </trkpt>
      <trkpt lat="45.08083" lon="-0.54662">
        <ele>31.557453</ele>
        <time>2019-01-13T10:44:14Z</time>
      </trkpt>
      <trkpt lat="45.08083" lon="-0.54646">
        <ele>32.378452</ele>
        <time>2019-01-13T10:44:19Z</time>
      </trkpt>
      <trkpt lat="45.08087" lon="-0.54629">
        <ele>32.043453</ele>
        <time>2019-01-13T10:44:24Z</time>
      </trkpt>
      <trkpt lat="45.08094" lon="-0.54618">
        <ele>18.602453</ele>
        <time>2019-01-13T10:44:29Z</time>
      </trkpt>
      <trkpt lat="45.08102" lon="-0.54608">
        <ele>17.321453</ele>
        <time>2019-01-13T10:44:34Z</time>
      </trkpt>
      <trkpt lat="45.08113" lon="-0.54598">
        <ele>17.174452</ele>
        <time>2019-01-13T10:44:39Z</time>
      </trkpt>
      <trkpt lat="45.08124" lon="-0.54586">
        <ele>18.784452</ele>
        <time>2019-01-13T10:44:44Z</time>
      </trkpt>
      <trkpt lat="45.08133" lon="-0.54573">
        <ele>20.669453</ele>
        <time>2019-01-13T10:44:49Z</time>
      </trkpt>
      <trkpt lat="45.08139" lon="-0.54558">
        <ele>21.095453</ele>
        <time>2019-01-13T10:44:54Z</time>
      </trkpt>
      <trkpt lat="45.08144" lon="-0.54543">
        <ele>21.918453</ele>
        <time>2019-01-13T10:44:59Z</time>
      </trkpt>
      <trkpt lat="45.08148" lon="-0.54527">
        <ele>22.961452</ele>
        <time>2019-01-13T10:45:04Z</time>
      </trkpt>
      <trkpt lat="45.08151" lon="-0.54508">
        <ele>21.260452</ele>
        <time>2019-01-13T10:45:09Z</time>
      </trkpt>
      <trkpt lat="45.08154" lon="-0.5449">
        <ele>20.959452</ele>
        <time>2019-01-13T10:45:14Z</time>
      </trkpt>
      <trkpt lat="45.08155" lon="-0.54472">
        <ele>20.161453</ele>
        <time>2019-01-13T10:45:19Z</time>
      </trkpt>
      <trkpt lat="45.08157" lon="-0.54456">
        <ele>20.667452</ele>
        <time>2019-01-13T10:45:24Z</time>
      </trkpt>
      <trkpt lat="45.08159" lon="-0.54438">
        <ele>19.357452</ele>
        <time>2019-01-13T10:45:29Z</time>
      </trkpt>
      <trkpt lat="45.0816" lon="-0.5442">
        <ele>19.333452</ele>
        <time>2019-01-13T10:45:34Z</time>
      </trkpt>
      <trkpt lat="45.08162" lon="-0.54403">
        <ele>19.661453</ele>
        <time>2019-01-13T10:45:39Z</time>
      </trkpt>
      <trkpt lat="45.08172" lon="-0.54396">
        <ele>20.216452</ele>
        <time>2019-01-13T10:45:44Z</time>
      </trkpt>
      <trkpt lat="45.08185" lon="-0.54389">
        <ele>21.526453</ele>
        <time>2019-01-13T10:45:49Z</time>
      </trkpt>
      <trkpt lat="45.08191" lon="-0.54373">
        <ele>22.890453</ele>
        <time>2019-01-13T10:45:54Z</time>
      </trkpt>
      <trkpt lat="45.08196" lon="-0.54356">
        <ele>22.250452</ele>
        <time>2019-01-13T10:45:59Z</time>
      </trkpt>
      <trkpt lat="45.08198" lon="-0.54334">
        <ele>24.185452</ele>
        <time>2019-01-13T10:46:05Z</time>
      </trkpt>
      <trkpt lat="45.082" lon="-0.543">
        <ele>24.546452</ele>
        <time>2019-01-13T10:46:14Z</time>
      </trkpt>
      <trkpt lat="45.08199" lon="-0.54283">
        <ele>23.267452</ele>
        <time>2019-01-13T10:46:19Z</time>
      </trkpt>
      <trkpt lat="45.08196" lon="-0.54266">
        <ele>23.771452</ele>
        <time>2019-01-13T10:46:24Z</time>
      </trkpt>
      <trkpt lat="45.08194" lon="-0.54252">
        <ele>24.398453</ele>
        <time>2019-01-13T10:46:29Z</time>
      </trkpt>
      <trkpt lat="45.08201" lon="-0.54241">
        <ele>25.865452</ele>
        <time>2019-01-13T10:46:34Z</time>
      </trkpt>
      <trkpt lat="45.08213" lon="-0.54238">
        <ele>27.692451</ele>
        <time>2019-01-13T10:46:39Z</time>
      </trkpt>
      <trkpt lat="45.08226" lon="-0.54237">
        <ele>29.459452</ele>
        <time>2019-01-13T10:46:44Z</time>
      </trkpt>
      <trkpt lat="45.08233" lon="-0.54218">
        <ele>28.102453</ele>
        <time>2019-01-13T10:46:49Z</time>
      </trkpt>
      <trkpt lat="45.08233" lon="-0.54196">
        <ele>29.328453</ele>
        <time>2019-01-13T10:46:54Z</time>
      </trkpt>
      <trkpt lat="45.08228" lon="-0.54174">
        <ele>30.329453</ele>
        <time>2019-01-13T10:47:00Z</time>
      </trkpt>
      <trkpt lat="45.08227" lon="-0.54141">
        <ele>31.269453</ele>
        <time>2019-01-13T10:47:09Z</time>
      </trkpt>
      <trkpt lat="45.08225" lon="-0.54124">
        <ele>30.440453</ele>
        <time>2019-01-13T10:47:14Z</time>
      </trkpt>
      <trkpt lat="45.08227" lon="-0.54109">
        <ele>29.816452</ele>
        <time>2019-01-13T10:47:19Z</time>
      </trkpt>
      <trkpt lat="45.08234" lon="-0.54099">
        <ele>31.725452</ele>
        <time>2019-01-13T10:47:24Z</time>
      </trkpt>
      <trkpt lat="45.08247" lon="-0.54096">
        <ele>31.074451</ele>
        <time>2019-01-13T10:47:29Z</time>
      </trkpt>
      <trkpt lat="45.0826" lon="-0.54082">
        <ele>31.751451</ele>
        <time>2019-01-13T10:47:34Z</time>
      </trkpt>
      <trkpt lat="45.08265" lon="-0.54063">
        <ele>31.185452</ele>
        <time>2019-01-13T10:47:39Z</time>
      </trkpt>
      <trkpt lat="45.0827" lon="-0.54045">
        <ele>30.454453</ele>
        <time>2019-01-13T10:47:45Z</time>
      </trkpt>
      <trkpt lat="45.08288" lon="-0.5403">
        <ele>28.530453</ele>
        <time>2019-01-13T10:47:54Z</time>
      </trkpt>
      <trkpt lat="45.083" lon="-0.54023">
        <ele>26.552452</ele>
        <time>2019-01-13T10:47:58Z</time>
      </trkpt>
      <trkpt lat="45.0831" lon="-0.54027">
        <ele>28.686453</ele>
        <time>2019-01-13T10:48:04Z</time>
      </trkpt>
      <trkpt lat="45.08319" lon="-0.54044">
        <ele>29.516453</ele>
        <time>2019-01-13T10:48:09Z</time>
      </trkpt>
      <trkpt lat="45.08329" lon="-0.54055">
        <ele>29.318453</ele>
        <time>2019-01-13T10:48:14Z</time>
      </trkpt>
      <trkpt lat="45.08344" lon="-0.54059">
        <ele>29.123453</ele>
        <time>2019-01-13T10:48:19Z</time>
      </trkpt>
      <trkpt lat="45.08355" lon="-0.54062">
        <ele>27.935452</ele>
        <time>2019-01-13T10:48:24Z</time>
      </trkpt>
      <trkpt lat="45.08373" lon="-0.54068">
        <ele>28.148453</ele>
        <time>2019-01-13T10:48:30Z</time>
      </trkpt>
      <trkpt lat="45.08394" lon="-0.54078">
        <ele>27.391453</ele>
        <time>2019-01-13T10:48:39Z</time>
      </trkpt>
      <trkpt lat="45.08407" lon="-0.54081">
        <ele>25.875452</ele>
        <time>2019-01-13T10:48:44Z</time>
      </trkpt>
      <trkpt lat="45.08421" lon="-0.54087">
        <ele>25.221453</ele>
        <time>2019-01-13T10:48:49Z</time>
      </trkpt>
      <trkpt lat="45.08434" lon="-0.54092">
        <ele>26.091452</ele>
        <time>2019-01-13T10:48:54Z</time>
      </trkpt>
      <trkpt lat="45.08445" lon="-0.54088">
        <ele>25.519453</ele>
        <time>2019-01-13T10:48:59Z</time>
      </trkpt>
      <trkpt lat="45.0845" lon="-0.54069">
        <ele>23.081453</ele>
        <time>2019-01-13T10:49:04Z</time>
      </trkpt>
      <trkpt lat="45.08456" lon="-0.54052">
        <ele>21.651453</ele>
        <time>2019-01-13T10:49:09Z</time>
      </trkpt>
      <trkpt lat="45.0846" lon="-0.54035">
        <ele>19.030453</ele>
        <time>2019-01-13T10:49:14Z</time>
      </trkpt>
      <trkpt lat="45.08463" lon="-0.54014">
        <ele>16.564453</ele>
        <time>2019-01-13T10:49:19Z</time>
      </trkpt>
      <trkpt lat="45.08468" lon="-0.53993">
        <ele>13.958452</ele>
        <time>2019-01-13T10:49:24Z</time>
      </trkpt>
      <trkpt lat="45.08475" lon="-0.53971">
        <ele>12.778452</ele>
        <time>2019-01-13T10:49:29Z</time>
      </trkpt>
      <trkpt lat="45.08484" lon="-0.53948">
        <ele>10.104452</ele>
        <time>2019-01-13T10:49:34Z</time>
      </trkpt>
      <trkpt lat="45.08489" lon="-0.53925">
        <ele>8.522452</ele>
        <time>2019-01-13T10:49:39Z</time>
      </trkpt>
      <trkpt lat="45.08494" lon="-0.53906">
        <ele>6.2074523</ele>
        <time>2019-01-13T10:49:44Z</time>
      </trkpt>
      <trkpt lat="45.08499" lon="-0.53892">
        <ele>4.0924525</ele>
        <time>2019-01-13T10:49:49Z</time>
      </trkpt>
      <trkpt lat="45.08508" lon="-0.53892">
        <ele>3.9274523</ele>
        <time>2019-01-13T10:49:54Z</time>
      </trkpt>
      <trkpt lat="45.08519" lon="-0.53899">
        <ele>4.6944523</ele>
        <time>2019-01-13T10:49:59Z</time>
      </trkpt>
      <trkpt lat="45.0853" lon="-0.53907">
        <ele>4.6744523</ele>
        <time>2019-01-13T10:50:04Z</time>
      </trkpt>
      <trkpt lat="45.08546" lon="-0.53915">
        <ele>4.2444525</ele>
        <time>2019-01-13T10:50:10Z</time>
      </trkpt>
      <trkpt lat="45.08569" lon="-0.53924">
        <ele>2.9224524</ele>
        <time>2019-01-13T10:50:19Z</time>
      </trkpt>
      <trkpt lat="45.08579" lon="-0.53929">
        <ele>2.6744523</ele>
        <time>2019-01-13T10:50:24Z</time>
      </trkpt>
      <trkpt lat="45.0859" lon="-0.53937">
        <ele>3.1484523</ele>
        <time>2019-01-13T10:50:29Z</time>
      </trkpt>
      <trkpt lat="45.08601" lon="-0.53945">
        <ele>2.6434524</ele>
        <time>2019-01-13T10:50:34Z</time>
      </trkpt>
      <trkpt lat="45.08612" lon="-0.53955">
        <ele>1.9264524</ele>
        <time>2019-01-13T10:50:39Z</time>
      </trkpt>
      <trkpt lat="45.08621" lon="-0.53961">
        <ele>5.5344524</ele>
        <time>2019-01-13T10:50:44Z</time>
      </trkpt>
      <trkpt lat="45.08618" lon="-0.53966">
        <ele>6.6854525</ele>
        <time>2019-01-13T10:50:49Z</time>
      </trkpt>
      <trkpt lat="45.0861" lon="-0.53981">
        <ele>5.4404526</ele>
        <time>2019-01-13T10:50:55Z</time>
      </trkpt>
      <trkpt lat="45.08606" lon="-0.54003">
        <ele>7.4614525</ele>
        <time>2019-01-13T10:51:04Z</time>
      </trkpt>
      <trkpt lat="45.086" lon="-0.54019">
        <ele>5.5344524</ele>
        <time>2019-01-13T10:51:09Z</time>
      </trkpt>
      <trkpt lat="45.08595" lon="-0.54034">
        <ele>5.5994525</ele>
        <time>2019-01-13T10:51:14Z</time>
      </trkpt>
      <trkpt lat="45.08589" lon="-0.54049">
        <ele>5.4184523</ele>
        <time>2019-01-13T10:51:19Z</time>
      </trkpt>
      <trkpt lat="45.08583" lon="-0.54064">
        <ele>5.320452</ele>
        <time>2019-01-13T10:51:24Z</time>
      </trkpt>
      <trkpt lat="45.08577" lon="-0.54078">
        <ele>5.4664526</ele>
        <time>2019-01-13T10:51:29Z</time>
      </trkpt>
      <trkpt lat="45.08573" lon="-0.54091">
        <ele>2.3854525</ele>
        <time>2019-01-13T10:51:34Z</time>
      </trkpt>
      <trkpt lat="45.08568" lon="-0.54106">
        <ele>3.7974524</ele>
        <time>2019-01-13T10:51:39Z</time>
      </trkpt>
      <trkpt lat="45.08565" lon="-0.54124">
        <ele>3.5334525</ele>
        <time>2019-01-13T10:51:44Z</time>
      </trkpt>
      <trkpt lat="45.0856" lon="-0.54139">
        <ele>5.2734523</ele>
        <time>2019-01-13T10:51:49Z</time>
      </trkpt>
      <trkpt lat="45.08553" lon="-0.54143">
        <ele>5.3184524</ele>
        <time>2019-01-13T10:51:54Z</time>
      </trkpt>
      <trkpt lat="45.08543" lon="-0.54149">
        <ele>5.6134524</ele>
        <time>2019-01-13T10:51:59Z</time>
      </trkpt>
      <trkpt lat="45.08533" lon="-0.54156">
        <ele>5.2234526</ele>
        <time>2019-01-13T10:52:04Z</time>
      </trkpt>
      <trkpt lat="45.08524" lon="-0.54162">
        <ele>7.7404523</ele>
        <time>2019-01-13T10:52:09Z</time>
      </trkpt>
      <trkpt lat="45.08513" lon="-0.5417">
        <ele>7.9374523</ele>
        <time>2019-01-13T10:52:14Z</time>
      </trkpt>
      <trkpt lat="45.08503" lon="-0.54179">
        <ele>7.162452</ele>
        <time>2019-01-13T10:52:19Z</time>
      </trkpt>
      <trkpt lat="45.08497" lon="-0.54187">
        <ele>7.8744526</ele>
        <time>2019-01-13T10:52:24Z</time>
      </trkpt>
      <trkpt lat="45.0849" lon="-0.54196">
        <ele>8.761453</ele>
        <time>2019-01-13T10:52:29Z</time>
      </trkpt>
      <trkpt lat="45.08479" lon="-0.54209">
        <ele>9.569452</ele>
        <time>2019-01-13T10:52:35Z</time>
      </trkpt>
      <trkpt lat="45.08467" lon="-0.54233">
        <ele>9.021452</ele>
        <time>2019-01-13T10:52:44Z</time>
      </trkpt>
      <trkpt lat="45.0846" lon="-0.54252">
        <ele>7.7774525</ele>
        <time>2019-01-13T10:52:49Z</time>
      </trkpt>
      <trkpt lat="45.08458" lon="-0.54267">
        <ele>7.4884524</ele>
        <time>2019-01-13T10:52:54Z</time>
      </trkpt>
      <trkpt lat="45.08457" lon="-0.54282">
        <ele>6.6724524</ele>
        <time>2019-01-13T10:52:59Z</time>
      </trkpt>
      <trkpt lat="45.08458" lon="-0.54298">
        <ele>6.7984524</ele>
        <time>2019-01-13T10:53:04Z</time>
      </trkpt>
      <trkpt lat="45.0846" lon="-0.5432">
        <ele>4.0454526</ele>
        <time>2019-01-13T10:53:09Z</time>
      </trkpt>
      <trkpt lat="45.08463" lon="-0.54337">
        <ele>3.0074525</ele>
        <time>2019-01-13T10:53:14Z</time>
      </trkpt>
      <trkpt lat="45.08461" lon="-0.54357">
        <ele>2.7744524</ele>
        <time>2019-01-13T10:53:20Z</time>
      </trkpt>
      <trkpt lat="45.08461" lon="-0.54385">
        <ele>1.4804524</ele>
        <time>2019-01-13T10:53:29Z</time>
      </trkpt>
      <trkpt lat="45.08464" lon="-0.544">
        <ele>0.9964524</ele>
        <time>2019-01-13T10:53:34Z</time>
      </trkpt>
      <trkpt lat="45.08468" lon="-0.54419">
        <ele>1.3294524</ele>
        <time>2019-01-13T10:53:39Z</time>
      </trkpt>
      <trkpt lat="45.08472" lon="-0.54435">
        <ele>-0.6785476</ele>
        <time>2019-01-13T10:53:44Z</time>
      </trkpt>
      <trkpt lat="45.08475" lon="-0.54452">
        <ele>-0.5175476</ele>
        <time>2019-01-13T10:53:49Z</time>
      </trkpt>
      <trkpt lat="45.08477" lon="-0.54471">
        <ele>3.1254523</ele>
        <time>2019-01-13T10:53:54Z</time>
      </trkpt>
      <trkpt lat="45.08479" lon="-0.54481">
        <ele>2.6374524</ele>
        <time>2019-01-13T10:53:59Z</time>
      </trkpt>
      <trkpt lat="45.08481" lon="-0.54497">
        <ele>5.4864526</ele>
        <time>2019-01-13T10:54:03Z</time>
      </trkpt>
      <trkpt lat="45.08482" lon="-0.54512">
        <ele>7.2824526</ele>
        <time>2019-01-13T10:54:09Z</time>
      </trkpt>
      <trkpt lat="45.08483" lon="-0.54534">
        <ele>5.2104526</ele>
        <time>2019-01-13T10:54:15Z</time>
      </trkpt>
      <trkpt lat="45.08488" lon="-0.54564">
        <ele>6.5284524</ele>
        <time>2019-01-13T10:54:24Z</time>
      </trkpt>
      <trkpt lat="45.08491" lon="-0.5458">
        <ele>5.985452</ele>
        <time>2019-01-13T10:54:29Z</time>
      </trkpt>
      <trkpt lat="45.08494" lon="-0.54596">
        <ele>4.0414524</ele>
        <time>2019-01-13T10:54:34Z</time>
      </trkpt>
      <trkpt lat="45.085" lon="-0.54611">
        <ele>2.8614523</ele>
        <time>2019-01-13T10:54:39Z</time>
      </trkpt>
      <trkpt lat="45.08516" lon="-0.54617">
        <ele>1.2954524</ele>
        <time>2019-01-13T10:54:44Z</time>
      </trkpt>
      <trkpt lat="45.08529" lon="-0.54618">
        <ele>-0.16554761</ele>
        <time>2019-01-13T10:54:49Z</time>
      </trkpt>
      <trkpt lat="45.08541" lon="-0.54618">
        <ele>-0.5935476</ele>
        <time>2019-01-13T10:54:54Z</time>
      </trkpt>
      <trkpt lat="45.08555" lon="-0.54615">
        <ele>-1.3165476</ele>
        <time>2019-01-13T10:55:00Z</time>
      </trkpt>
      <trkpt lat="45.08569" lon="-0.54626">
        <ele>-0.2545476</ele>
        <time>2019-01-13T10:55:09Z</time>
      </trkpt>
      <trkpt lat="45.08579" lon="-0.54632">
        <ele>-1.7785476</ele>
        <time>2019-01-13T10:55:14Z</time>
      </trkpt>
      <trkpt lat="45.0859" lon="-0.54634">
        <ele>-2.3735476</ele>
        <time>2019-01-13T10:55:19Z</time>
      </trkpt>
      <trkpt lat="45.08602" lon="-0.54636">
        <ele>-3.4425476</ele>
        <time>2019-01-13T10:55:24Z</time>
      </trkpt>
      <trkpt lat="45.08614" lon="-0.54637">
        <ele>-5.1275477</ele>
        <time>2019-01-13T10:55:29Z</time>
      </trkpt>
      <trkpt lat="45.08628" lon="-0.54638">
        <ele>-5.2875476</ele>
        <time>2019-01-13T10:55:34Z</time>
      </trkpt>
      <trkpt lat="45.0864" lon="-0.54636">
        <ele>-5.8515477</ele>
        <time>2019-01-13T10:55:39Z</time>
      </trkpt>
      <trkpt lat="45.08658" lon="-0.54636">
        <ele>-6.2415476</ele>
        <time>2019-01-13T10:55:45Z</time>
      </trkpt>
      <trkpt lat="45.08681" lon="-0.54638">
        <ele>-4.7615476</ele>
        <time>2019-01-13T10:55:54Z</time>
      </trkpt>
      <trkpt lat="45.08693" lon="-0.54626">
        <ele>-6.3335476</ele>
        <time>2019-01-13T10:55:59Z</time>
      </trkpt>
      <trkpt lat="45.08693" lon="-0.54603">
        <ele>-7.7195477</ele>
        <time>2019-01-13T10:56:04Z</time>
      </trkpt>
      <trkpt lat="45.08693" lon="-0.54583">
        <ele>-6.9845476</ele>
        <time>2019-01-13T10:56:09Z</time>
      </trkpt>
      <trkpt lat="45.08694" lon="-0.5456">
        <ele>-4.5375476</ele>
        <time>2019-01-13T10:56:14Z</time>
      </trkpt>
      <trkpt lat="45.08696" lon="-0.54542">
        <ele>-4.119548</ele>
        <time>2019-01-13T10:56:19Z</time>
      </trkpt>
      <trkpt lat="45.08697" lon="-0.54525">
        <ele>-3.8965476</ele>
        <time>2019-01-13T10:56:24Z</time>
      </trkpt>
      <trkpt lat="45.0869" lon="-0.54509">
        <ele>-5.949548</ele>
        <time>2019-01-13T10:56:29Z</time>
      </trkpt>
      <trkpt lat="45.08678" lon="-0.54504">
        <ele>-6.1405478</ele>
        <time>2019-01-13T10:56:34Z</time>
      </trkpt>
      <trkpt lat="45.08664" lon="-0.54495">
        <ele>-7.7545476</ele>
        <time>2019-01-13T10:56:40Z</time>
      </trkpt>
      <trkpt lat="45.08662" lon="-0.54464">
        <ele>-7.3285475</ele>
        <time>2019-01-13T10:56:49Z</time>
      </trkpt>
      <trkpt lat="45.08662" lon="-0.54444">
        <ele>-7.619548</ele>
        <time>2019-01-13T10:56:54Z</time>
      </trkpt>
      <trkpt lat="45.08661" lon="-0.54425">
        <ele>-8.026547</ele>
        <time>2019-01-13T10:56:59Z</time>
      </trkpt>
      <trkpt lat="45.08661" lon="-0.54404">
        <ele>-8.466548</ele>
        <time>2019-01-13T10:57:04Z</time>
      </trkpt>
      <trkpt lat="45.0866" lon="-0.5439">
        <ele>-8.215548</ele>
        <time>2019-01-13T10:57:09Z</time>
      </trkpt>
      <trkpt lat="45.0866" lon="-0.54371">
        <ele>-8.297547</ele>
        <time>2019-01-13T10:57:14Z</time>
      </trkpt>
      <trkpt lat="45.08661" lon="-0.54353">
        <ele>-8.933548</ele>
        <time>2019-01-13T10:57:19Z</time>
      </trkpt>
      <trkpt lat="45.08661" lon="-0.54335">
        <ele>-10.332547</ele>
        <time>2019-01-13T10:57:25Z</time>
      </trkpt>
      <trkpt lat="45.08674" lon="-0.54306">
        <ele>-11.034548</ele>
        <time>2019-01-13T10:57:34Z</time>
      </trkpt>
      <trkpt lat="45.08685" lon="-0.54294">
        <ele>-11.852548</ele>
        <time>2019-01-13T10:57:39Z</time>
      </trkpt>
      <trkpt lat="45.08696" lon="-0.54283">
        <ele>-12.235548</ele>
        <time>2019-01-13T10:57:44Z</time>
      </trkpt>
      <trkpt lat="45.08706" lon="-0.54275">
        <ele>-8.403547</ele>
        <time>2019-01-13T10:57:49Z</time>
      </trkpt>
      <trkpt lat="45.08718" lon="-0.54263">
        <ele>-8.311547</ele>
        <time>2019-01-13T10:57:54Z</time>
      </trkpt>
      <trkpt lat="45.08728" lon="-0.5425">
        <ele>-10.352548</ele>
        <time>2019-01-13T10:57:59Z</time>
      </trkpt>
      <trkpt lat="45.08737" lon="-0.54237">
        <ele>-10.1635475</ele>
        <time>2019-01-13T10:58:04Z</time>
      </trkpt>
      <trkpt lat="45.08741" lon="-0.54212">
        <ele>-10.207547</ele>
        <time>2019-01-13T10:58:10Z</time>
      </trkpt>
      <trkpt lat="45.08719" lon="-0.54197">
        <ele>-10.234548</ele>
        <time>2019-01-13T10:58:19Z</time>
      </trkpt>
      <trkpt lat="45.08706" lon="-0.54184">
        <ele>-9.156548</ele>
        <time>2019-01-13T10:58:24Z</time>
      </trkpt>
      <trkpt lat="45.08701" lon="-0.54169">
        <ele>-9.076548</ele>
        <time>2019-01-13T10:58:29Z</time>
      </trkpt>
      <trkpt lat="45.087" lon="-0.54152">
        <ele>-7.902548</ele>
        <time>2019-01-13T10:58:34Z</time>
      </trkpt>
      <trkpt lat="45.08702" lon="-0.54114">
        <ele>-8.9795475</ele>
        <time>2019-01-13T10:58:43Z</time>
      </trkpt>
      <trkpt lat="45.08703" lon="-0.54097">
        <ele>-8.281548</ele>
        <time>2019-01-13T10:58:48Z</time>
      </trkpt>
      <trkpt lat="45.08704" lon="-0.54078">
        <ele>-9.682548</ele>
        <time>2019-01-13T10:58:53Z</time>
      </trkpt>
      <trkpt lat="45.08706" lon="-0.54058">
        <ele>-9.678548</ele>
        <time>2019-01-13T10:58:58Z</time>
      </trkpt>
      <trkpt lat="45.08707" lon="-0.54035">
        <ele>-9.841548</ele>
        <time>2019-01-13T10:59:04Z</time>
      </trkpt>
      <trkpt lat="45.0871" lon="-0.54006">
        <ele>-9.415547</ele>
        <time>2019-01-13T10:59:13Z</time>
      </trkpt>
      <trkpt lat="45.08714" lon="-0.5399">
        <ele>-8.418548</ele>
        <time>2019-01-13T10:59:18Z</time>
      </trkpt>
      <trkpt lat="45.0872" lon="-0.53976">
        <ele>-4.9325476</ele>
        <time>2019-01-13T10:59:23Z</time>
      </trkpt>
      <trkpt lat="45.08725" lon="-0.5396">
        <ele>-5.449548</ele>
        <time>2019-01-13T10:59:28Z</time>
      </trkpt>
      <trkpt lat="45.08732" lon="-0.53941">
        <ele>-4.5715475</ele>
        <time>2019-01-13T10:59:33Z</time>
      </trkpt>
      <trkpt lat="45.08738" lon="-0.53925">
        <ele>-6.850548</ele>
        <time>2019-01-13T10:59:38Z</time>
      </trkpt>
      <trkpt lat="45.08745" lon="-0.53911">
        <ele>-8.544548</ele>
        <time>2019-01-13T10:59:43Z</time>
      </trkpt>
      <trkpt lat="45.08756" lon="-0.53898">
        <ele>-8.090548</ele>
        <time>2019-01-13T10:59:49Z</time>
      </trkpt>
      <trkpt lat="45.08765" lon="-0.53887">
        <ele>-8.747547</ele>
        <time>2019-01-13T10:59:53Z</time>
      </trkpt>
      <trkpt lat="45.08774" lon="-0.53867">
        <ele>-7.139548</ele>
        <time>2019-01-13T10:59:58Z</time>
      </trkpt>
      <trkpt lat="45.08774" lon="-0.53846">
        <ele>-8.279548</ele>
        <time>2019-01-13T11:00:03Z</time>
      </trkpt>
      <trkpt lat="45.0877" lon="-0.53824">
        <ele>-9.455547</ele>
        <time>2019-01-13T11:00:08Z</time>
      </trkpt>
      <trkpt lat="45.08768" lon="-0.53806">
        <ele>-10.943547</ele>
        <time>2019-01-13T11:00:13Z</time>
      </trkpt>
      <trkpt lat="45.08764" lon="-0.53788">
        <ele>-11.154548</ele>
        <time>2019-01-13T11:00:18Z</time>
      </trkpt>
      <trkpt lat="45.08762" lon="-0.5377">
        <ele>-12.259547</ele>
        <time>2019-01-13T11:00:24Z</time>
      </trkpt>
      <trkpt lat="45.08758" lon="-0.53751">
        <ele>-13.212547</ele>
        <time>2019-01-13T11:00:29Z</time>
      </trkpt>
      <trkpt lat="45.08765" lon="-0.53735">
        <ele>-14.009547</ele>
        <time>2019-01-13T11:00:34Z</time>
      </trkpt>
      <trkpt lat="45.08781" lon="-0.53715">
        <ele>-14.478548</ele>
        <time>2019-01-13T11:00:43Z</time>
      </trkpt>
      <trkpt lat="45.08789" lon="-0.53701">
        <ele>-15.185548</ele>
        <time>2019-01-13T11:00:48Z</time>
      </trkpt>
      <trkpt lat="45.08799" lon="-0.53686">
        <ele>-15.943547</ele>
        <time>2019-01-13T11:00:53Z</time>
      </trkpt>
      <trkpt lat="45.08806" lon="-0.53673">
        <ele>-15.990547</ele>
        <time>2019-01-13T11:00:58Z</time>
      </trkpt>
      <trkpt lat="45.08816" lon="-0.5366">
        <ele>-16.607548</ele>
        <time>2019-01-13T11:01:03Z</time>
      </trkpt>
      <trkpt lat="45.08826" lon="-0.53647">
        <ele>-14.779548</ele>
        <time>2019-01-13T11:01:08Z</time>
      </trkpt>
      <trkpt lat="45.08836" lon="-0.53637">
        <ele>-17.275547</ele>
        <time>2019-01-13T11:01:14Z</time>
      </trkpt>
      <trkpt lat="45.08847" lon="-0.5363">
        <ele>-13.499548</ele>
        <time>2019-01-13T11:01:19Z</time>
      </trkpt>
      <trkpt lat="45.0886" lon="-0.53627">
        <ele>-14.031548</ele>
        <time>2019-01-13T11:01:24Z</time>
      </trkpt>
      <trkpt lat="45.08872" lon="-0.53625">
        <ele>-13.611547</ele>
        <time>2019-01-13T11:01:29Z</time>
      </trkpt>
      <trkpt lat="45.08888" lon="-0.53624">
        <ele>-14.879548</ele>
        <time>2019-01-13T11:01:34Z</time>
      </trkpt>
      <trkpt lat="45.08901" lon="-0.53625">
        <ele>-15.625547</ele>
        <time>2019-01-13T11:01:39Z</time>
      </trkpt>
      <trkpt lat="45.08914" lon="-0.53627">
        <ele>-15.809547</ele>
        <time>2019-01-13T11:01:44Z</time>
      </trkpt>
      <trkpt lat="45.08926" lon="-0.53632">
        <ele>-14.738547</ele>
        <time>2019-01-13T11:01:49Z</time>
      </trkpt>
      <trkpt lat="45.08938" lon="-0.53639">
        <ele>-12.546548</ele>
        <time>2019-01-13T11:01:54Z</time>
      </trkpt>
      <trkpt lat="45.08949" lon="-0.53647">
        <ele>-15.360548</ele>
        <time>2019-01-13T11:01:59Z</time>
      </trkpt>
      <trkpt lat="45.08963" lon="-0.53657">
        <ele>-18.562548</ele>
        <time>2019-01-13T11:02:05Z</time>
      </trkpt>
      <trkpt lat="45.08983" lon="-0.53652">
        <ele>-15.929547</ele>
        <time>2019-01-13T11:02:15Z</time>
      </trkpt>
      <trkpt lat="45.08979" lon="-0.53617">
        <ele>-15.576548</ele>
        <time>2019-01-13T11:02:24Z</time>
      </trkpt>
      <trkpt lat="45.08977" lon="-0.53596">
        <ele>-16.740547</ele>
        <time>2019-01-13T11:02:29Z</time>
      </trkpt>
      <trkpt lat="45.08976" lon="-0.53576">
        <ele>-16.340548</ele>
        <time>2019-01-13T11:02:34Z</time>
      </trkpt>
      <trkpt lat="45.08975" lon="-0.53556">
        <ele>-17.033548</ele>
        <time>2019-01-13T11:02:39Z</time>
      </trkpt>
      <trkpt lat="45.08976" lon="-0.53538">
        <ele>-18.269548</ele>
        <time>2019-01-13T11:02:44Z</time>
      </trkpt>
      <trkpt lat="45.08976" lon="-0.53518">
        <ele>-19.304548</ele>
        <time>2019-01-13T11:02:49Z</time>
      </trkpt>
      <trkpt lat="45.08974" lon="-0.53499">
        <ele>-17.928547</ele>
        <time>2019-01-13T11:02:54Z</time>
      </trkpt>
      <trkpt lat="45.08971" lon="-0.53476">
        <ele>-18.275547</ele>
        <time>2019-01-13T11:03:00Z</time>
      </trkpt>
      <trkpt lat="45.08961" lon="-0.53446">
        <ele>-18.429548</ele>
        <time>2019-01-13T11:03:09Z</time>
      </trkpt>
      <trkpt lat="45.08953" lon="-0.53431">
        <ele>-18.780548</ele>
        <time>2019-01-13T11:03:14Z</time>
      </trkpt>
      <trkpt lat="45.08941" lon="-0.53417">
        <ele>-18.616549</ele>
        <time>2019-01-13T11:03:19Z</time>
      </trkpt>
      <trkpt lat="45.08929" lon="-0.53406">
        <ele>-18.375547</ele>
        <time>2019-01-13T11:03:24Z</time>
      </trkpt>
      <trkpt lat="45.0892" lon="-0.53392">
        <ele>-16.683548</ele>
        <time>2019-01-13T11:03:29Z</time>
      </trkpt>
      <trkpt lat="45.08915" lon="-0.53377">
        <ele>-12.642548</ele>
        <time>2019-01-13T11:03:34Z</time>
      </trkpt>
      <trkpt lat="45.08913" lon="-0.53361">
        <ele>-12.870547</ele>
        <time>2019-01-13T11:03:39Z</time>
      </trkpt>
      <trkpt lat="45.0891" lon="-0.53344">
        <ele>-13.505548</ele>
        <time>2019-01-13T11:03:44Z</time>
      </trkpt>
      <trkpt lat="45.08909" lon="-0.53325">
        <ele>-14.117548</ele>
        <time>2019-01-13T11:03:49Z</time>
      </trkpt>
      <trkpt lat="45.08907" lon="-0.53304">
        <ele>-14.600548</ele>
        <time>2019-01-13T11:03:55Z</time>
      </trkpt>
      <trkpt lat="45.08901" lon="-0.53276">
        <ele>-14.157548</ele>
        <time>2019-01-13T11:04:04Z</time>
      </trkpt>
      <trkpt lat="45.08896" lon="-0.53257">
        <ele>-13.712547</ele>
        <time>2019-01-13T11:04:09Z</time>
      </trkpt>
      <trkpt lat="45.0889" lon="-0.53241">
        <ele>-11.064548</ele>
        <time>2019-01-13T11:04:14Z</time>
      </trkpt>
      <trkpt lat="45.08871" lon="-0.53243">
        <ele>-12.587547</ele>
        <time>2019-01-13T11:04:19Z</time>
      </trkpt>
      <trkpt lat="45.08857" lon="-0.53251">
        <ele>-11.576548</ele>
        <time>2019-01-13T11:04:24Z</time>
      </trkpt>
      <trkpt lat="45.08846" lon="-0.53259">
        <ele>-10.515548</ele>
        <time>2019-01-13T11:04:29Z</time>
      </trkpt>
      <trkpt lat="45.08835" lon="-0.53267">
        <ele>-11.599547</ele>
        <time>2019-01-13T11:04:34Z</time>
      </trkpt>
      <trkpt lat="45.0882" lon="-0.53274">
        <ele>-9.764547</ele>
        <time>2019-01-13T11:04:40Z</time>
      </trkpt>
      <trkpt lat="45.08796" lon="-0.53278">
        <ele>-10.896547</ele>
        <time>2019-01-13T11:04:49Z</time>
      </trkpt>
      <trkpt lat="45.08782" lon="-0.53281">
        <ele>-11.708548</ele>
        <time>2019-01-13T11:04:54Z</time>
      </trkpt>
      <trkpt lat="45.0877" lon="-0.53281">
        <ele>-10.733547</ele>
        <time>2019-01-13T11:04:59Z</time>
      </trkpt>
      <trkpt lat="45.08756" lon="-0.53279">
        <ele>-10.982548</ele>
        <time>2019-01-13T11:05:04Z</time>
      </trkpt>
      <trkpt lat="45.08742" lon="-0.53276">
        <ele>-8.886548</ele>
        <time>2019-01-13T11:05:09Z</time>
      </trkpt>
      <trkpt lat="45.08732" lon="-0.53274">
        <ele>-9.585547</ele>
        <time>2019-01-13T11:05:13Z</time>
      </trkpt>
      <trkpt lat="45.08719" lon="-0.53271">
        <ele>-5.7695475</ele>
        <time>2019-01-13T11:05:19Z</time>
      </trkpt>
      <trkpt lat="45.08709" lon="-0.5327">
        <ele>-7.1675477</ele>
        <time>2019-01-13T11:05:24Z</time>
      </trkpt>
      <trkpt lat="45.08688" lon="-0.53265">
        <ele>-5.7695475</ele>
        <time>2019-01-13T11:05:33Z</time>
      </trkpt>
      <trkpt lat="45.08674" lon="-0.53259">
        <ele>-5.5465474</ele>
        <time>2019-01-13T11:05:38Z</time>
      </trkpt>
      <trkpt lat="45.08662" lon="-0.53254">
        <ele>-3.1715477</ele>
        <time>2019-01-13T11:05:44Z</time>
      </trkpt>
      <trkpt lat="45.08653" lon="-0.53247">
        <ele>-6.0335474</ele>
        <time>2019-01-13T11:05:48Z</time>
      </trkpt>
      <trkpt lat="45.08651" lon="-0.53228">
        <ele>-4.705548</ele>
        <time>2019-01-13T11:05:53Z</time>
      </trkpt>
      <trkpt lat="45.08651" lon="-0.53208">
        <ele>-10.755548</ele>
        <time>2019-01-13T11:05:58Z</time>
      </trkpt>
      <trkpt lat="45.08651" lon="-0.53206">
        <ele>0.06645239</ele>
        <time>2019-01-13T11:05:59Z</time>
      </trkpt>
    </trkseg>
  </trk>
</gpx>